San Diego, California
Traffic Map
Current Weather Conditions
San Diego, California
Few Clouds
Few Clouds
27°
Feels Like: 28°
Wind Chill: 27° Ceiling: Unl
Heat Index: 28° Visibility: 10mi
Dew Point: 19° Wind: 0mph
Humidity: 62% Direction: ° ()
Pressure: 29.85in Gusts: 0mph
Raw Report DataKSAN 290251Z 00000KT 10SM FEW010 27/19 A2985 RMK AO2 SLP107 T02670189 53005
Traffic Incident Summary
Active as of:
Severity:
Category:
InformationThere was an issue retrieving the traffic information for this location. Please try a different location or try again shortly.
Advertisements
Track Severe Weather on mobile